createdAt,value
2023-04-22T00:02:25.082Z,3.73
2023-04-22T00:04:52.202Z,3.40
2023-04-22T00:07:19.107Z,3.50
2023-04-22T00:09:46.004Z,3.20
2023-04-22T00:12:13.238Z,3.20
2023-04-22T00:14:40.113Z,3.03
2023-04-22T00:17:07.104Z,3.67
2023-04-22T00:19:34.924Z,3.60
2023-04-22T00:22:02.033Z,3.30
2023-04-22T00:24:29.260Z,2.70
2023-04-22T00:26:56.060Z,3.80
2023-04-22T00:29:23.070Z,4.80
2023-04-22T00:31:50.005Z,3.10
2023-04-22T00:34:18.111Z,3.27
2023-04-22T00:36:46.140Z,4.10
2023-04-22T00:39:13.126Z,2.70
2023-04-22T00:41:40.521Z,2.93
2023-04-22T00:44:11.601Z,3.57
2023-04-22T00:46:39.709Z,3.53
2023-04-22T00:49:08.241Z,3.30
2023-04-22T00:51:35.292Z,3.10
2023-04-22T00:54:02.206Z,3.10
2023-04-22T00:56:31.488Z,2.70
2023-04-22T00:58:58.823Z,2.90
2023-04-22T01:01:26.324Z,2.80
2023-04-22T01:03:53.861Z,3.50
2023-04-22T01:06:22.251Z,2.77
2023-04-22T01:08:49.008Z,3.00
2023-04-22T01:11:15.965Z,3.03
2023-04-22T01:13:43.002Z,2.80
2023-04-22T01:16:10.844Z,3.37
2023-04-22T01:18:38.018Z,3.30
2023-04-22T01:21:05.840Z,3.00
2023-04-22T01:23:33.453Z,3.43
2023-04-22T01:26:00.319Z,3.37
2023-04-22T01:28:27.706Z,2.87
2023-04-22T01:30:56.475Z,4.07
2023-04-22T01:33:24.087Z,4.50
2023-04-22T01:35:51.176Z,3.70
2023-04-22T01:38:18.240Z,3.20
2023-04-22T01:40:44.961Z,3.10
2023-04-22T01:43:11.783Z,3.80
2023-04-22T01:45:39.549Z,3.50
2023-04-22T01:48:09.538Z,2.53
2023-04-22T01:50:37.261Z,2.87
2023-04-22T01:53:04.259Z,3.40
2023-04-22T01:55:31.493Z,3.03
2023-04-22T01:57:58.306Z,2.70
2023-04-22T02:00:25.472Z,2.77
2023-04-22T02:02:52.463Z,3.47
2023-04-22T02:05:19.393Z,3.07
2023-04-22T02:07:46.751Z,3.37
2023-04-22T02:10:16.717Z,2.60
2023-04-22T02:12:43.981Z,3.13
2023-04-22T02:15:11.506Z,3.20
2023-04-22T02:17:39.168Z,2.93
2023-04-22T02:20:06.620Z,2.53
2023-04-22T02:22:33.567Z,2.83
2023-04-22T02:25:01.365Z,2.47
2023-04-22T02:27:28.061Z,3.60
2023-04-22T02:29:54.759Z,3.37
2023-04-22T02:32:21.457Z,2.93
2023-04-22T02:34:48.954Z,3.40
2023-04-22T02:37:16.127Z,4.00
2023-04-22T02:39:43.061Z,2.87
2023-04-22T02:42:09.857Z,3.00
2023-04-22T02:44:36.952Z,2.70
2023-04-22T02:47:03.770Z,2.63
2023-04-22T02:49:30.758Z,3.00
2023-04-22T02:51:57.874Z,2.90
2023-04-22T02:54:24.666Z,3.30
2023-04-22T02:56:51.830Z,3.60
2023-04-22T02:59:18.597Z,3.53
2023-04-22T03:01:45.705Z,3.67
2023-04-22T03:04:25.729Z,3.40
2023-04-22T03:06:52.993Z,3.33
2023-04-22T03:09:19.798Z,3.47
2023-04-22T03:11:46.560Z,2.70
2023-04-22T03:14:13.312Z,2.77
2023-04-22T03:16:40.553Z,3.30
2023-04-22T03:19:07.681Z,3.53
2023-04-22T03:21:34.393Z,3.20
2023-04-22T03:24:02.029Z,3.10
2023-04-22T03:26:31.991Z,3.30
2023-04-22T03:28:59.799Z,3.80
2023-04-22T03:31:26.601Z,3.40
2023-04-22T03:33:53.394Z,2.97
2023-04-22T03:36:28.214Z,3.70
2023-04-22T03:38:55.704Z,3.40
2023-04-22T03:41:26.457Z,3.60
2023-04-22T03:43:53.365Z,3.30
2023-04-22T03:46:20.904Z,3.93
2023-04-22T03:48:56.575Z,3.50
2023-04-22T03:51:29.495Z,3.53
2023-04-22T03:53:58.155Z,3.20
2023-04-22T03:56:27.208Z,3.07
2023-04-22T03:58:57.715Z,3.47
2023-04-22T04:01:25.192Z,3.13
2023-04-22T04:03:56.174Z,3.37
2023-04-22T04:06:24.951Z,3.70
2023-04-22T04:08:52.064Z,2.90
2023-04-22T04:11:19.254Z,3.47
2023-04-22T04:13:48.740Z,3.10
2023-04-22T04:16:22.525Z,3.00
2023-04-22T04:18:55.626Z,3.33
2023-04-22T04:21:24.733Z,2.83
2023-04-22T04:23:52.854Z,3.63
2023-04-22T04:26:25.266Z,3.80
2023-04-22T04:28:57.403Z,3.17
2023-04-22T04:31:25.106Z,3.87
2023-04-22T04:33:54.449Z,3.90
2023-04-22T04:36:21.279Z,4.30
2023-04-22T04:38:49.230Z,3.97
2023-04-22T04:41:15.942Z,3.20
2023-04-22T04:43:46.263Z,3.30
2023-04-22T04:46:21.966Z,2.90
2023-04-22T04:48:50.629Z,3.47
2023-04-22T04:51:20.276Z,3.30
2023-04-22T04:53:55.694Z,3.40
2023-04-22T04:56:23.868Z,5.30
2023-04-22T04:58:50.992Z,3.80
2023-04-22T05:01:24.722Z,3.80
2023-04-22T05:03:52.789Z,3.90
2023-04-22T05:06:20.980Z,3.20
2023-04-22T05:08:52.733Z,3.27
2023-04-22T05:11:20.403Z,3.83
2023-04-22T05:13:50.423Z,2.90
2023-04-22T05:16:24.216Z,3.47
2023-04-22T05:18:51.030Z,4.23
2023-04-22T05:21:18.007Z,3.50
2023-04-22T05:23:45.584Z,3.90
2023-04-22T05:26:13.433Z,3.80
2023-04-22T05:28:42.224Z,4.33
2023-04-22T05:31:09.236Z,4.10
2023-04-22T05:33:37.176Z,4.10
2023-04-22T05:36:06.164Z,4.57
2023-04-22T05:38:33.152Z,4.60
2023-04-22T05:41:00.702Z,4.00
2023-04-22T05:43:28.246Z,3.80
2023-04-22T05:46:02.126Z,4.43
2023-04-22T05:48:28.921Z,5.30
2023-04-22T05:51:02.416Z,4.73
2023-04-22T05:53:30.599Z,5.20
2023-04-22T05:55:59.681Z,4.50
2023-04-22T05:58:26.425Z,5.00
2023-04-22T06:00:54.714Z,5.30
2023-04-22T06:03:46.377Z,5.60
2023-04-22T06:06:13.407Z,5.60
2023-04-22T06:08:40.240Z,5.83
2023-04-22T06:11:07.016Z,5.23
2023-04-22T06:13:35.810Z,6.43
2023-04-22T06:16:05.280Z,7.27
2023-04-22T06:18:32.732Z,6.60
2023-04-22T06:21:00.538Z,6.03
2023-04-22T06:23:27.606Z,6.30
2023-04-22T06:25:54.287Z,5.90
2023-04-22T06:28:21.705Z,5.80
2023-04-22T06:30:51.003Z,6.47
2023-04-22T06:33:18.043Z,6.53
2023-04-22T06:35:45.168Z,5.67
2023-04-22T06:38:12.280Z,6.30
2023-04-22T06:40:47.867Z,6.00
2023-04-22T06:43:21.660Z,5.70
2023-04-22T06:46:07.323Z,6.67
2023-04-22T06:48:49.151Z,5.73
2023-04-22T06:51:24.932Z,5.70
2023-04-22T06:53:52.036Z,5.70
2023-04-22T06:56:19.101Z,6.03
2023-04-22T06:58:45.857Z,5.57
2023-04-22T07:01:12.787Z,6.60
2023-04-22T07:03:41.366Z,5.80
2023-04-22T07:06:12.360Z,5.90
2023-04-22T07:08:39.592Z,6.33
2023-04-22T07:11:06.562Z,5.30
2023-04-22T07:13:42.608Z,5.70
2023-04-22T07:16:09.441Z,6.03
2023-04-22T07:18:36.716Z,6.10
2023-04-22T07:21:03.494Z,4.83
2023-04-22T07:23:30.276Z,5.50
2023-04-22T07:25:57.153Z,5.13
2023-04-22T07:28:24.056Z,4.57
2023-04-22T07:30:50.942Z,4.70
2023-04-22T07:33:17.710Z,4.40
2023-04-22T07:35:44.486Z,3.60
2023-04-22T07:38:12.727Z,4.47
2023-04-22T07:40:41.004Z,4.27
2023-04-22T07:43:08.684Z,6.20
2023-04-22T07:45:35.685Z,4.27
2023-04-22T07:48:02.981Z,4.73
2023-04-22T07:50:29.764Z,5.20
2023-04-22T07:52:56.567Z,4.20
2023-04-22T07:55:23.562Z,4.77
2023-04-22T07:57:50.291Z,4.33
2023-04-22T08:00:17.536Z,5.40
2023-04-22T08:02:44.635Z,3.67
2023-04-22T08:05:11.811Z,5.63
2023-04-22T08:07:38.974Z,4.40
2023-04-22T08:10:06.727Z,3.60
2023-04-22T08:12:33.575Z,4.10
2023-04-22T08:15:00.333Z,4.03
2023-04-22T08:17:27.452Z,4.60
2023-04-22T08:19:54.446Z,8.10
2023-04-22T08:22:21.209Z,10.30
2023-04-22T08:24:48.032Z,4.77
2023-04-22T08:27:14.861Z,4.10
2023-04-22T08:29:42.178Z,3.40
2023-04-22T08:32:09.528Z,4.73
2023-04-22T08:34:37.155Z,3.93
2023-04-22T08:37:04.143Z,3.67
2023-04-22T08:39:31.028Z,3.33
2023-04-22T08:41:58.338Z,3.40
2023-04-22T08:44:26.162Z,3.13
2023-04-22T08:46:54.564Z,2.97
2023-04-22T08:49:24.360Z,3.20
2023-04-22T08:51:52.954Z,2.70
2023-04-22T08:54:19.782Z,2.87
2023-04-22T08:56:49.143Z,2.63
2023-04-22T08:59:16.683Z,2.63
2023-04-22T09:01:44.107Z,2.13
2023-04-22T09:04:11.650Z,3.00
2023-04-22T09:06:39.439Z,2.50
2023-04-22T09:09:08.747Z,3.10
2023-04-22T09:11:36.344Z,3.00
2023-04-22T09:14:04.303Z,2.50
2023-04-22T09:16:32.194Z,2.50
2023-04-22T09:18:59.320Z,2.60
2023-04-22T09:21:28.034Z,2.03
2023-04-22T09:23:56.414Z,2.10
2023-04-22T09:26:25.152Z,1.80
2023-04-22T09:28:53.840Z,1.50
2023-04-22T09:31:24.174Z,1.93
2023-04-22T09:34:00.878Z,1.80
2023-04-22T09:36:28.404Z,2.00
2023-04-22T09:38:59.961Z,1.67
2023-04-22T09:41:38.635Z,1.90
2023-04-22T09:44:10.231Z,1.33
2023-04-22T09:46:37.004Z,1.77
2023-04-22T09:49:03.955Z,1.80
2023-04-22T09:51:30.857Z,1.60
2023-04-22T09:53:59.398Z,1.73
2023-04-22T09:56:51.390Z,1.90
2023-04-22T09:59:23.216Z,1.83
2023-04-22T10:01:53.177Z,2.00
2023-04-22T10:04:24.870Z,1.60
2023-04-22T10:06:55.058Z,1.77
2023-04-22T10:09:23.347Z,1.53
2023-04-22T10:11:52.796Z,1.93
2023-04-22T10:14:22.090Z,1.90
2023-04-22T10:16:50.772Z,2.00
2023-04-22T10:19:26.396Z,1.87
2023-04-22T10:21:58.554Z,2.27
2023-04-22T10:24:34.165Z,1.70
2023-04-22T10:27:06.508Z,1.60
2023-04-22T10:29:38.989Z,1.63
2023-04-22T10:32:27.669Z,1.43
2023-04-22T10:35:09.324Z,1.77
2023-04-22T10:37:36.363Z,1.77
2023-04-22T10:40:22.820Z,1.90
2023-04-22T10:42:52.222Z,2.07
2023-04-22T10:45:20.094Z,2.03
2023-04-22T10:47:46.882Z,1.80
2023-04-22T10:50:16.663Z,1.43
2023-04-22T10:52:46.259Z,1.93
2023-04-22T10:55:13.114Z,1.63
2023-04-22T10:57:42.644Z,1.50
2023-04-22T11:00:23.220Z,1.73
2023-04-22T11:03:05.360Z,1.70
2023-04-22T11:05:33.043Z,1.47
2023-04-22T11:08:13.015Z,1.80
2023-04-22T11:10:43.807Z,1.90
2023-04-22T11:13:17.099Z,2.00
2023-04-22T11:15:46.305Z,1.63
2023-04-22T11:18:27.348Z,1.50
2023-04-22T11:20:54.425Z,1.77
2023-04-22T11:23:25.581Z,1.83
2023-04-22T11:25:58.060Z,2.10
2023-04-22T11:28:25.431Z,1.53
2023-04-22T11:30:52.521Z,1.57
2023-04-22T11:33:19.797Z,1.87
2023-04-22T11:35:49.651Z,1.40
2023-04-22T11:38:16.400Z,1.87
2023-04-22T11:40:46.533Z,1.83
2023-04-22T11:43:14.012Z,1.73
2023-04-22T11:45:41.501Z,2.10
2023-04-22T11:48:11.330Z,2.63
2023-04-22T11:50:40.567Z,1.77
2023-04-22T11:53:14.851Z,1.43
2023-04-22T11:55:43.198Z,1.60
2023-04-22T11:58:14.747Z,1.57
2023-04-22T12:00:50.361Z,1.43
2023-04-22T12:03:18.630Z,1.30
2023-04-22T12:05:57.786Z,1.57
2023-04-22T12:08:27.094Z,1.20
2023-04-22T12:10:55.960Z,1.50
2023-04-22T12:13:29.832Z,1.37
2023-04-22T12:15:59.183Z,1.50
2023-04-22T12:18:33.287Z,1.60
2023-04-22T12:21:06.780Z,1.60
2023-04-22T12:23:52.958Z,1.47
2023-04-22T12:26:24.525Z,1.23
2023-04-22T12:28:52.603Z,1.10
2023-04-22T12:31:20.302Z,1.20
2023-04-22T12:33:47.270Z,1.10
2023-04-22T12:36:14.226Z,1.30
2023-04-22T12:38:41.675Z,1.10
2023-04-22T12:41:08.546Z,1.10
2023-04-22T12:43:37.049Z,1.30
2023-04-22T12:46:05.645Z,1.20
2023-04-22T12:48:33.049Z,1.20
2023-04-22T12:51:00.513Z,0.90
2023-04-22T12:53:27.948Z,1.10
2023-04-22T12:55:55.284Z,0.90
2023-04-22T12:58:22.149Z,1.00
2023-04-22T13:00:49.090Z,0.93
2023-04-22T13:03:16.483Z,0.90
2023-04-22T13:05:45.082Z,1.10
2023-04-22T13:08:11.920Z,1.07
2023-04-22T13:10:38.780Z,0.90
2023-04-22T13:13:17.719Z,0.90
2023-04-22T13:15:47.039Z,1.10
2023-04-22T13:18:14.939Z,0.90
2023-04-22T13:20:42.828Z,0.97
2023-04-22T13:23:10.549Z,1.03
2023-04-22T13:25:37.638Z,0.83
2023-04-22T13:28:04.720Z,1.17
2023-04-22T13:30:31.486Z,0.90
2023-04-22T13:32:58.309Z,0.90
2023-04-22T13:35:25.393Z,0.87
2023-04-22T13:37:52.717Z,1.10
2023-04-22T13:40:19.803Z,0.93
2023-04-22T13:42:46.628Z,0.87
2023-04-22T13:45:13.467Z,0.83
2023-04-22T13:47:40.252Z,1.30
2023-04-22T13:50:07.704Z,0.83
2023-04-22T13:52:35.205Z,1.27
2023-04-22T13:55:03.992Z,1.13
2023-04-22T13:57:30.904Z,1.10
2023-04-22T13:59:57.769Z,1.20
2023-04-22T14:02:24.619Z,1.03
2023-04-22T14:04:51.488Z,1.13
2023-04-22T14:07:18.543Z,0.97
2023-04-22T14:09:45.425Z,1.70
2023-04-22T14:12:12.269Z,1.20
2023-04-22T14:14:39.086Z,1.17
2023-04-22T14:17:06.029Z,1.40
2023-04-22T14:19:33.984Z,1.30
2023-04-22T14:22:01.002Z,1.40
2023-04-22T14:24:28.579Z,1.10
2023-04-22T14:26:59.183Z,1.30
2023-04-22T14:29:29.717Z,1.30
2023-04-22T14:31:57.678Z,1.50
2023-04-22T14:34:24.851Z,1.00
2023-04-22T14:36:51.568Z,1.33
2023-04-22T14:39:18.336Z,1.20
2023-04-22T14:41:45.457Z,1.13
2023-04-22T14:44:12.372Z,1.00
2023-04-22T14:46:39.245Z,1.30
2023-04-22T14:49:06.136Z,1.00
2023-04-22T14:51:32.973Z,1.13
2023-04-22T14:53:59.807Z,1.27
2023-04-22T14:56:26.725Z,1.30
2023-04-22T14:58:53.488Z,1.23
2023-04-22T15:01:21.491Z,1.10
2023-04-22T15:03:48.851Z,1.00
2023-04-22T15:06:15.985Z,1.50
2023-04-22T15:08:42.866Z,1.20
2023-04-22T15:11:09.821Z,1.20
2023-04-22T15:13:36.699Z,1.30
2023-04-22T15:16:03.498Z,1.33
2023-04-22T15:18:30.399Z,1.70
2023-04-22T15:20:57.354Z,1.30
2023-04-22T15:23:24.371Z,1.50
2023-04-22T15:25:51.292Z,1.47
2023-04-22T15:28:18.069Z,1.40
2023-04-22T15:30:44.890Z,1.50
2023-04-22T15:33:11.658Z,2.00
2023-04-22T15:35:42.830Z,1.80
2023-04-22T15:38:09.680Z,1.60
2023-04-22T15:40:36.889Z,2.17
2023-04-22T15:43:03.692Z,2.20
2023-04-22T15:45:30.483Z,2.00
2023-04-22T15:47:58.157Z,2.07
2023-04-22T15:50:25.200Z,1.80
2023-04-22T15:52:52.339Z,1.83
2023-04-22T15:55:19.083Z,2.33
2023-04-22T15:57:45.854Z,2.10
2023-04-22T16:00:14.336Z,1.43
2023-04-22T16:02:42.817Z,1.87
2023-04-22T16:05:11.761Z,1.83
2023-04-22T16:07:39.282Z,2.07
2023-04-22T16:10:06.882Z,1.57
2023-04-22T16:12:34.373Z,2.47
2023-04-22T16:15:01.593Z,1.90
2023-04-22T16:17:28.828Z,1.70
2023-04-22T16:19:55.741Z,1.50
2023-04-22T16:22:22.568Z,2.10
2023-04-22T16:24:49.318Z,2.10
2023-04-22T16:27:18.107Z,2.00
2023-04-22T16:29:45.310Z,1.77
2023-04-22T16:32:12.479Z,1.67
2023-04-22T16:34:39.640Z,1.83
2023-04-22T16:37:06.650Z,2.40
2023-04-22T16:39:34.002Z,1.87
2023-04-22T16:42:02.342Z,2.10
2023-04-22T16:44:29.198Z,2.80
2023-04-22T16:46:55.938Z,2.93
2023-04-22T16:49:22.674Z,2.57
2023-04-22T16:51:49.786Z,2.43
2023-04-22T16:54:16.654Z,2.37
2023-04-22T16:56:43.347Z,2.37
2023-04-22T16:59:10.160Z,2.30
2023-04-22T17:01:37.154Z,2.50
2023-04-22T17:04:04.064Z,2.60
2023-04-22T17:06:31.203Z,4.10
2023-04-22T17:08:58.166Z,2.50
2023-04-22T17:11:25.332Z,2.83
2023-04-22T17:13:52.125Z,2.53
2023-04-22T17:16:19.052Z,2.43
2023-04-22T17:18:47.023Z,2.63
2023-04-22T17:21:14.832Z,2.07
2023-04-22T17:23:41.557Z,2.20
2023-04-22T17:26:08.706Z,2.53
2023-04-22T17:28:35.573Z,2.60
2023-04-22T17:31:04.037Z,2.77
2023-04-22T17:33:31.259Z,2.40
2023-04-22T17:35:58.088Z,2.60
2023-04-22T17:38:24.821Z,2.10
2023-04-22T17:40:51.920Z,2.57
2023-04-22T17:43:18.702Z,2.63
2023-04-22T17:45:45.681Z,2.33
2023-04-22T17:48:12.493Z,2.40
2023-04-22T17:50:39.403Z,2.17
2023-04-22T17:53:06.279Z,2.10
2023-04-22T17:55:35.227Z,2.10
2023-04-22T17:58:02.985Z,2.20
2023-04-22T18:00:30.009Z,3.20
2023-04-22T18:02:56.919Z,2.07
2023-04-22T18:05:23.847Z,2.20
2023-04-22T18:07:50.738Z,3.50
2023-04-22T18:10:17.482Z,2.50
2023-04-22T18:12:44.353Z,2.10
2023-04-22T18:15:11.175Z,2.30
2023-04-22T18:17:38.061Z,3.00
2023-04-22T18:20:16.891Z,2.17
2023-04-22T18:22:49.539Z,2.40
2023-04-22T18:25:16.575Z,2.83
2023-04-22T18:27:44.238Z,2.50
2023-04-22T18:30:11.182Z,2.20
2023-04-22T18:32:38.743Z,2.10
2023-04-22T18:35:06.168Z,2.93
2023-04-22T18:37:34.977Z,2.33
2023-04-22T18:40:02.426Z,2.70
2023-04-22T18:42:30.338Z,2.50
2023-04-22T18:44:57.333Z,2.23
2023-04-22T18:47:24.136Z,2.03
2023-04-22T18:49:50.941Z,2.43
2023-04-22T18:52:17.996Z,2.40
2023-04-22T18:54:44.983Z,2.03
2023-04-22T18:57:12.006Z,2.40
2023-04-22T18:59:39.940Z,2.60
2023-04-22T19:02:06.789Z,2.33
2023-04-22T19:04:33.750Z,2.03
2023-04-22T19:07:00.988Z,2.43
2023-04-22T19:09:27.794Z,2.00
2023-04-22T19:11:55.175Z,3.17
2023-04-22T19:14:21.930Z,2.77
2023-04-22T19:16:48.675Z,3.67
2023-04-22T19:19:15.469Z,2.93
2023-04-22T19:21:42.676Z,3.03
2023-04-22T19:24:09.774Z,3.30
2023-04-22T19:26:36.632Z,2.30
2023-04-22T19:29:03.484Z,2.80
2023-04-22T19:31:30.834Z,2.70
2023-04-22T19:33:57.907Z,3.07
2023-04-22T19:36:25.145Z,2.87
2023-04-22T19:38:52.150Z,2.40
2023-04-22T19:41:18.880Z,3.03
2023-04-22T19:43:46.324Z,2.97
2023-04-22T19:46:13.136Z,2.63
2023-04-22T19:48:40.765Z,2.97
2023-04-22T19:51:07.860Z,2.83
2023-04-22T19:53:35.532Z,2.70
2023-04-22T19:56:03.120Z,3.07
2023-04-22T19:58:30.605Z,2.67
2023-04-22T20:00:57.546Z,2.57
2023-04-22T20:03:24.879Z,3.03
2023-04-22T20:05:51.996Z,2.10
2023-04-22T20:08:20.102Z,3.07
2023-04-22T20:10:49.518Z,2.63
2023-04-22T20:13:17.647Z,2.47
2023-04-22T20:15:44.682Z,2.60
2023-04-22T20:18:12.243Z,2.27
2023-04-22T20:20:48.019Z,3.00
2023-04-22T20:23:15.405Z,2.60
2023-04-22T20:25:46.855Z,2.63
2023-04-22T20:28:13.899Z,2.70
2023-04-22T20:30:40.946Z,2.53
2023-04-22T20:33:08.265Z,3.50
2023-04-22T20:35:36.138Z,2.67
2023-04-22T20:38:03.605Z,2.40
2023-04-22T20:40:31.757Z,2.07
2023-04-22T20:42:59.115Z,3.03
2023-04-22T20:45:27.198Z,2.73
2023-04-22T20:47:54.094Z,3.40
2023-04-22T20:50:20.826Z,2.40
2023-04-22T20:52:49.314Z,4.23
2023-04-22T20:55:17.087Z,3.00
2023-04-22T20:57:43.983Z,3.20
2023-04-22T21:00:11.595Z,3.17
2023-04-22T21:02:39.711Z,3.37
2023-04-22T21:05:07.251Z,3.10
2023-04-22T21:07:35.377Z,3.63
2023-04-22T21:10:02.385Z,3.50
2023-04-22T21:12:29.269Z,2.70
2023-04-22T21:14:56.269Z,2.90
2023-04-22T21:17:27.859Z,2.47
2023-04-22T21:19:57.596Z,2.10
2023-04-22T21:22:25.039Z,1.80
2023-04-22T21:24:52.927Z,1.80
2023-04-22T21:27:21.607Z,2.03
2023-04-22T21:29:49.473Z,2.17
2023-04-22T21:32:17.202Z,1.80
2023-04-22T21:34:44.853Z,2.03
2023-04-22T21:37:12.265Z,1.83
2023-04-22T21:39:40.535Z,2.60
2023-04-22T21:42:08.658Z,2.07
2023-04-22T21:44:37.401Z,2.23
2023-04-22T21:47:05.629Z,2.27
2023-04-22T21:49:32.577Z,2.57
2023-04-22T21:51:59.564Z,1.80
2023-04-22T21:54:26.467Z,2.70
2023-04-22T21:56:53.548Z,2.10
2023-04-22T21:59:20.361Z,2.43
2023-04-22T22:01:47.157Z,2.30
2023-04-22T22:04:16.178Z,1.80
2023-04-22T22:06:44.716Z,1.73
2023-04-22T22:09:12.326Z,2.20
2023-04-22T22:11:39.071Z,2.07
2023-04-22T22:14:06.097Z,1.93
2023-04-22T22:16:33.479Z,2.10
2023-04-22T22:19:02.662Z,1.93
2023-04-22T22:21:31.700Z,2.20
2023-04-22T22:23:58.667Z,1.93
2023-04-22T22:26:26.189Z,1.63
2023-04-22T22:28:53.012Z,1.60
2023-04-22T22:31:19.837Z,1.90
2023-04-22T22:33:46.622Z,1.77
2023-04-22T22:36:13.515Z,2.17
2023-04-22T22:38:40.751Z,2.63
2023-04-22T22:41:07.476Z,2.70
2023-04-22T22:43:34.252Z,2.30
2023-04-22T22:46:01.297Z,1.90
2023-04-22T22:48:28.405Z,2.33
2023-04-22T22:50:56.561Z,2.00
2023-04-22T22:53:23.400Z,2.10
2023-04-22T22:55:50.287Z,2.10
2023-04-22T22:58:17.015Z,2.00
2023-04-22T23:00:43.845Z,2.73
2023-04-22T23:03:11.142Z,2.60
2023-04-22T23:05:38.236Z,2.67
2023-04-22T23:08:04.948Z,3.07
2023-04-22T23:10:31.851Z,2.97
2023-04-22T23:12:58.595Z,2.13
2023-04-22T23:15:25.375Z,3.10
2023-04-22T23:17:52.143Z,2.60
2023-04-22T23:20:19.490Z,2.30
2023-04-22T23:22:49.574Z,2.20
2023-04-22T23:25:16.857Z,2.70
2023-04-22T23:27:44.606Z,2.60
2023-04-22T23:30:11.828Z,2.53
2023-04-22T23:32:40.714Z,2.43
2023-04-22T23:35:08.854Z,2.97
2023-04-22T23:37:37.693Z,2.97
2023-04-22T23:40:04.999Z,2.50
2023-04-22T23:42:32.238Z,2.00
2023-04-22T23:44:58.937Z,2.30
2023-04-22T23:47:26.085Z,2.90
2023-04-22T23:49:53.246Z,2.57
2023-04-22T23:52:20.316Z,2.63
2023-04-22T23:54:47.354Z,2.40
2023-04-22T23:57:15.122Z,2.03
2023-04-22T23:59:42.077Z,3.10
